Time;durP1;ratioP1;P1;durP2;ratioP2;P2;SDS_P1;SDS_P2;PMS_P1;PMS_P2;Temp;Humidity;BMP_temperature;BMP_pressure;BME280_temperature;BME280_humidity;BME280_pressure;Samples;Min_cycle;Max_cycle;Signal;HPM_P1;HPM_P2
2022/03/25 00:00:25;;;;;;;116.47;62.03;;;6.40;99.90;;;;;;5106332;28;20043;-56
2022/03/25 00:02:51;;;;;;;119.28;62.85;;;6.40;99.90;;;;;;5113555;28;20059;-56
2022/03/25 00:05:17;;;;;;;119.30;61.95;;;6.30;99.90;;;;;;5104584;28;20115;-57
2022/03/25 00:07:42;;;;;;;122.05;64.85;;;6.40;99.90;;;;;;5093282;28;20147;-56
2022/03/25 00:10:08;;;;;;;120.88;61.08;;;6.40;99.90;;;;;;5093819;28;20032;-56
2022/03/25 00:12:34;;;;;;;122.20;63.22;;;6.40;99.90;;;;;;5095782;28;20032;-56
2022/03/25 00:14:59;;;;;;;120.25;62.60;;;6.30;99.90;;;;;;5099444;28;20152;-56
2022/03/25 00:17:25;;;;;;;119.40;61.40;;;6.20;99.90;;;;;;5113905;28;20047;-56
2022/03/25 00:19:51;;;;;;;116.28;61.95;;;6.30;99.90;;;;;;5113958;28;20487;-56
2022/03/25 00:22:17;;;;;;;114.60;60.08;;;6.30;99.90;;;;;;5113955;28;20035;-56
2022/03/25 00:24:42;;;;;;;125.28;63.63;;;6.20;99.90;;;;;;5114109;27;20036;-55
2022/03/25 00:27:09;;;;;;;123.80;62.72;;;6.20;99.90;;;;;;5102166;28;20046;-56
2022/03/25 00:29:35;;;;;;;109.00;59.45;;;6.10;99.90;;;;;;5113910;28;20051;-56
2022/03/25 00:32:02;;;;;;;117.50;59.38;;;6.00;99.90;;;;;;5113205;28;20036;-56
2022/03/25 00:34:28;;;;;;;112.30;60.70;;;6.00;99.90;;;;;;5113006;28;20476;-56
2022/03/25 00:36:53;;;;;;;119.05;60.25;;;6.00;99.90;;;;;;5113496;28;20165;-57
2022/03/25 00:39:19;;;;;;;121.55;64.00;;;5.90;99.90;;;;;;5106242;28;20039;-56
2022/03/25 00:41:44;;;;;;;115.72;62.60;;;5.90;99.90;;;;;;5113505;28;20419;-56
2022/03/25 00:44:11;;;;;;;112.55;60.95;;;5.90;99.90;;;;;;5113799;28;20046;-56
2022/03/25 00:46:37;;;;;;;112.57;59.97;;;5.90;99.90;;;;;;5094108;28;20098;-55
2022/03/25 00:49:04;;;;;;;110.32;57.92;;;5.90;99.90;;;;;;5076601;28;20173;-56
2022/03/25 00:51:29;;;;;;;112.78;58.85;;;5.80;99.90;;;;;;5092969;28;20119;-56
2022/03/25 00:53:55;;;;;;;104.63;57.03;;;5.70;99.90;;;;;;5089487;28;20803;-56
2022/03/25 00:56:22;;;;;;;105.80;56.03;;;5.60;99.90;;;;;;5109078;28;20433;-56
2022/03/25 00:58:47;;;;;;;108.32;57.38;;;5.60;99.90;;;;;;5111881;28;20043;-56
2022/03/25 01:01:15;;;;;;;111.72;57.22;;;5.40;99.90;;;;;;5111862;28;20042;-56
2022/03/25 01:03:40;;;;;;;106.47;54.53;;;5.40;99.90;;;;;;5095167;28;20040;-56
2022/03/25 01:06:06;;;;;;;107.75;55.78;;;5.20;99.90;;;;;;5113035;28;20043;-55
2022/03/25 01:08:32;;;;;;;104.72;54.22;;;5.10;99.90;;;;;;5111360;28;20050;-55
2022/03/25 01:10:58;;;;;;;112.03;61.63;;;5.00;99.90;;;;;;5102506;27;20063;-56
2022/03/25 01:13:23;;;;;;;109.47;57.25;;;4.90;99.90;;;;;;5124382;27;20035;-55
2022/03/25 01:15:49;;;;;;;118.50;60.60;;;4.90;99.90;;;;;;5102631;28;20032;-56
2022/03/25 01:18:14;;;;;;;116.15;60.53;;;4.80;99.90;;;;;;5092495;28;20039;-56
2022/03/25 01:20:41;;;;;;;117.97;60.42;;;4.80;99.90;;;;;;5092376;28;20058;-56
2022/03/25 01:23:09;;;;;;;109.78;58.85;;;4.80;99.90;;;;;;5091534;28;20051;-56
2022/03/25 01:25:36;;;;;;;118.88;59.50;;;4.80;99.90;;;;;;5095934;28;20057;-56
2022/03/25 01:28:01;;;;;;;118.13;61.45;;;4.70;99.90;;;;;;5092332;28;20403;-56
2022/03/25 01:30:27;;;;;;;130.02;65.82;;;4.70;99.90;;;;;;5112438;28;20118;-56
2022/03/25 01:32:53;;;;;;;113.53;58.80;;;4.70;99.90;;;;;;5111482;28;20495;-55
2022/03/25 01:35:24;;;;;;;108.95;57.40;;;4.70;99.90;;;;;;5112020;28;20032;-56
2022/03/25 01:37:50;;;;;;;106.63;58.03;;;4.60;99.90;;;;;;5112268;28;20043;-56
2022/03/25 01:40:16;;;;;;;117.20;59.75;;;4.60;99.90;;;;;;5074075;28;20507;-59
2022/03/25 01:42:42;;;;;;;109.75;56.72;;;4.40;99.90;;;;;;5091994;28;20055;-56
2022/03/25 01:45:11;;;;;;;116.38;59.28;;;4.40;99.90;;;;;;5094998;28;20043;-57
2022/03/25 01:47:38;;;;;;;114.97;59.88;;;4.40;99.90;;;;;;5104149;28;20568;-56
2022/03/25 01:50:12;;;;;;;115.72;60.38;;;4.40;99.90;;;;;;5110550;28;20115;-56
2022/03/25 01:52:39;;;;;;;117.45;58.05;;;4.30;99.90;;;;;;5112592;28;20039;-56
2022/03/25 01:55:26;;;;;;;119.57;61.85;;;4.30;99.90;;;;;;5111796;28;20126;-56
2022/03/25 01:57:55;;;;;;;132.52;64.95;;;4.40;99.90;;;;;;5112010;28;20074;-56
2022/03/25 02:00:20;;;;;;;126.40;62.70;;;4.50;99.90;;;;;;5112266;28;20802;-56
2022/03/25 02:02:46;;;;;;;123.32;61.38;;;4.60;99.90;;;;;;5110426;28;20035;-57
2022/03/25 02:05:12;;;;;;;134.68;65.50;;;4.60;99.90;;;;;;5093918;28;20036;-56
2022/03/25 02:07:48;;;;;;;130.82;65.50;;;4.60;99.90;;;;;;5122511;28;20040;-55
2022/03/25 02:10:14;;;;;;;132.68;65.03;;;4.70;99.90;;;;;;5103354;28;20122;-56
2022/03/25 02:12:40;;;;;;;128.73;62.80;;;4.70;99.90;;;;;;5111057;28;20039;-56
2022/03/25 02:15:08;;;;;;;132.82;65.35;;;4.70;99.90;;;;;;5110477;28;20046;-55
2022/03/25 02:17:34;;;;;;;125.38;64.10;;;4.70;99.90;;;;;;5111999;28;20069;-55
2022/03/25 02:20:00;;;;;;;127.93;62.33;;;4.70;99.90;;;;;;5111891;28;20040;-56
2022/03/25 02:22:25;;;;;;;115.60;60.63;;;4.60;99.90;;;;;;5112100;28;20028;-55
2022/03/25 02:24:51;;;;;;;131.38;64.82;;;4.60;99.90;;;;;;5110090;28;20097;-56
2022/03/25 02:27:17;;;;;;;115.78;59.83;;;4.60;99.90;;;;;;5110791;28;20039;-55
2022/03/25 02:29:44;;;;;;;120.95;60.85;;;4.60;99.90;;;;;;5105401;28;20484;-56
2022/03/25 02:32:10;;;;;;;120.68;60.60;;;4.60;99.90;;;;;;5093533;28;20530;-56
2022/03/25 02:34:37;;;;;;;120.60;61.30;;;4.50;99.90;;;;;;5110336;28;20080;-56
2022/03/25 02:37:04;;;;;;;113.93;56.35;;;4.40;99.90;;;;;;5094589;28;20076;-55
2022/03/25 02:39:30;;;;;;;122.57;61.05;;;4.40;99.90;;;;;;5091448;28;20040;-55
2022/03/25 02:41:56;;;;;;;120.95;61.17;;;4.20;99.90;;;;;;5091317;28;20527;-55
2022/03/25 02:44:22;;;;;;;102.10;54.85;;;4.20;99.90;;;;;;5092070;28;20036;-55
2022/03/25 02:46:47;;;;;;;107.80;55.28;;;4.10;99.90;;;;;;5091396;28;20040;-55
2022/03/25 02:49:13;;;;;;;102.00;53.83;;;4.10;99.90;;;;;;5091217;28;20059;-55
2022/03/25 02:51:39;;;;;;;106.05;56.05;;;4.00;99.90;;;;;;5095012;28;20032;-55
2022/03/25 02:54:05;;;;;;;113.13;57.28;;;3.90;99.90;;;;;;5103636;28;20043;-56
2022/03/25 02:56:32;;;;;;;113.93;59.75;;;3.80;99.90;;;;;;5089812;28;20031;-56
2022/03/25 02:58:58;;;;;;;113.28;57.80;;;3.70;99.90;;;;;;5132634;27;20398;-55
2022/03/25 03:01:23;;;;;;;109.07;55.05;;;3.70;99.90;;;;;;5136014;27;20039;-56
2022/03/25 03:03:49;;;;;;;101.95;55.00;;;3.60;99.90;;;;;;5136037;27;20039;-55
2022/03/25 03:06:15;;;;;;;109.82;57.20;;;3.60;99.90;;;;;;5100001;27;20075;-55
2022/03/25 03:08:41;;;;;;;115.03;58.55;;;3.60;99.90;;;;;;5107469;28;20078;-56
2022/03/25 03:11:08;;;;;;;116.35;59.85;;;3.60;99.90;;;;;;5115464;28;20472;-55
2022/03/25 03:13:34;;;;;;;122.10;59.05;;;3.70;99.90;;;;;;5108938;27;20107;-55
2022/03/25 03:16:00;;;;;;;119.82;59.63;;;3.70;99.90;;;;;;5093689;28;20047;-55
2022/03/25 03:18:26;;;;;;;128.13;60.80;;;3.70;99.90;;;;;;5094815;28;20044;-55
2022/03/25 03:20:52;;;;;;;117.13;59.67;;;3.70;99.90;;;;;;5094758;28;20043;-55
2022/03/25 03:23:18;;;;;;;117.20;58.05;;;3.80;99.90;;;;;;5100266;28;20043;-56
2022/03/25 03:25:43;;;;;;;106.25;54.22;;;3.80;99.90;;;;;;5114169;28;20067;-56
2022/03/25 03:28:09;;;;;;;96.07;50.92;;;3.90;99.90;;;;;;5114996;28;20040;-56
2022/03/25 03:30:35;;;;;;;96.63;51.60;;;3.80;99.90;;;;;;5114902;28;20430;-56
2022/03/25 03:33:04;;;;;;;102.15;54.15;;;3.70;99.90;;;;;;5114838;28;20034;-56
2022/03/25 03:35:32;;;;;;;111.65;54.17;;;3.60;99.90;;;;;;5108529;28;20039;-56
2022/03/25 03:37:57;;;;;;;110.72;55.70;;;3.50;99.90;;;;;;5114420;28;20051;-55
2022/03/25 03:40:23;;;;;;;105.80;53.80;;;3.40;99.90;;;;;;5114985;28;20411;-55
2022/03/25 03:42:49;;;;;;;122.35;58.28;;;3.40;99.90;;;;;;5096602;28;20132;-56
2022/03/25 03:45:16;;;;;;;121.15;57.85;;;3.40;99.90;;;;;;5107103;28;20090;-55
2022/03/25 03:47:42;;;;;;;119.75;59.03;;;3.30;99.90;;;;;;5094168;28;20106;-56
2022/03/25 03:50:11;;;;;;;113.35;56.60;;;3.40;99.90;;;;;;5111255;28;20399;-54
2022/03/25 03:52:38;;;;;;;104.00;54.97;;;3.30;99.90;;;;;;5114707;28;20047;-55
2022/03/25 03:55:05;;;;;;;66.63;41.47;;;3.30;99.90;;;;;;5109146;28;20039;-54
2022/03/25 03:57:30;;;;;;;80.90;47.00;;;3.20;99.90;;;;;;5109645;28;20388;-55
2022/03/25 03:59:56;;;;;;;75.22;41.40;;;3.10;99.90;;;;;;5094024;28;20043;-56
2022/03/25 04:02:22;;;;;;;90.68;47.40;;;3.00;99.90;;;;;;5093693;28;20097;-55
2022/03/25 04:04:48;;;;;;;99.75;50.72;;;2.80;99.90;;;;;;5094355;28;20052;-55
2022/03/25 04:07:15;;;;;;;91.55;45.03;;;2.70;99.90;;;;;;5105551;28;20051;-55
2022/03/25 04:09:41;;;;;;;95.15;47.22;;;2.60;99.90;;;;;;5104678;28;20092;-55
2022/03/25 04:12:09;;;;;;;74.57;36.42;;;2.50;99.90;;;;;;5115464;28;20028;-55
2022/03/25 04:14:35;;;;;;;83.47;43.17;;;2.40;99.90;;;;;;5113439;28;20035;-55
2022/03/25 04:17:01;;;;;;;78.95;41.38;;;2.30;99.90;;;;;;5101071;28;20039;-56
2022/03/25 04:19:27;;;;;;;53.60;33.00;;;2.20;99.90;;;;;;5114163;27;20432;-55
2022/03/25 04:21:52;;;;;;;55.97;31.02;;;2.10;99.90;;;;;;5113761;28;20855;-54
2022/03/25 04:24:18;;;;;;;64.95;34.55;;;2.00;99.90;;;;;;5114166;28;20035;-54
2022/03/25 04:26:43;;;;;;;61.47;33.50;;;1.90;99.90;;;;;;5112949;28;20209;-56
2022/03/25 04:29:09;;;;;;;70.38;37.63;;;1.70;99.90;;;;;;5113967;28;20036;-55
2022/03/25 04:31:34;;;;;;;79.07;42.20;;;1.70;99.90;;;;;;5107390;28;20053;-55
2022/03/25 04:34:00;;;;;;;88.25;45.58;;;1.80;99.90;;;;;;5093400;28;20036;-55
2022/03/25 04:36:25;;;;;;;97.45;49.42;;;1.90;99.90;;;;;;5093109;28;20036;-54
2022/03/25 04:38:51;;;;;;;111.40;52.00;;;2.10;99.90;;;;;;5093347;28;20518;-53
2022/03/25 04:41:17;;;;;;;108.32;51.83;;;2.20;99.90;;;;;;5094428;28;20039;-53
2022/03/25 04:43:43;;;;;;;106.97;50.15;;;2.40;99.90;;;;;;5093560;28;20036;-55
2022/03/25 04:46:09;;;;;;;96.68;48.22;;;2.40;99.90;;;;;;5093282;28;20553;-56
2022/03/25 04:48:37;;;;;;;107.53;50.17;;;2.50;99.90;;;;;;5092982;28;20039;-55
2022/03/25 04:51:02;;;;;;;122.53;54.33;;;2.50;99.90;;;;;;5092697;28;20044;-55
2022/03/25 04:53:28;;;;;;;128.70;54.60;;;2.50;99.90;;;;;;5092902;28;20407;-55
2022/03/25 04:55:53;;;;;;;119.35;53.35;;;2.60;99.90;;;;;;5096845;28;20073;-55
2022/03/25 04:58:19;;;;;;;111.00;52.95;;;2.70;99.90;;;;;;5092648;28;20061;-55
2022/03/25 05:00:45;;;;;;;126.93;55.30;;;2.70;99.90;;;;;;5092736;28;20047;-55
2022/03/25 05:03:11;;;;;;;109.95;50.60;;;2.80;99.90;;;;;;5102947;28;20048;-55
2022/03/25 05:05:37;;;;;;;114.78;51.28;;;2.80;99.90;;;;;;5106867;28;20393;-56
2022/03/25 05:08:03;;;;;;;110.40;51.50;;;2.80;99.90;;;;;;5112791;28;20039;-56
2022/03/25 05:10:29;;;;;;;106.90;51.67;;;2.80;99.90;;;;;;5110442;28;20039;-56
2022/03/25 05:12:55;;;;;;;101.53;50.17;;;2.90;99.90;;;;;;5108294;28;20039;-56
2022/03/25 05:15:20;;;;;;;108.13;50.80;;;3.00;99.90;;;;;;5110786;28;20038;-57
2022/03/25 05:17:48;;;;;;;104.00;50.83;;;2.90;99.90;;;;;;5112124;28;20127;-55
2022/03/25 05:20:15;;;;;;;101.25;50.55;;;2.90;99.90;;;;;;5111606;28;20039;-56
2022/03/25 05:22:41;;;;;;;103.90;49.47;;;3.00;99.90;;;;;;5109276;28;20046;-56
2022/03/25 05:25:08;;;;;;;106.03;49.15;;;3.00;99.90;;;;;;5112409;28;20118;-55
2022/03/25 05:27:55;;;;;;;92.72;47.42;;;3.00;99.90;;;;;;5112406;28;20054;-54
2022/03/25 05:30:24;;;;;;;95.47;47.30;;;2.90;99.90;;;;;;5106705;28;20388;-55
2022/03/25 05:32:51;;;;;;;94.85;47.08;;;2.90;99.90;;;;;;5107878;28;20114;-56
2022/03/25 05:35:18;;;;;;;98.22;48.60;;;2.90;99.90;;;;;;5111370;28;20031;-55
2022/03/25 05:37:43;;;;;;;97.45;48.03;;;2.90;99.90;;;;;;5106933;28;20449;-55
2022/03/25 05:40:11;;;;;;;90.38;46.35;;;2.90;99.90;;;;;;5112472;28;20043;-55
2022/03/25 05:42:37;;;;;;;92.20;46.15;;;2.90;99.90;;;;;;5111844;28;20539;-55
2022/03/25 05:45:04;;;;;;;90.28;44.28;;;2.90;99.90;;;;;;5112253;28;20127;-55
2022/03/25 05:47:30;;;;;;;88.88;46.45;;;2.90;99.90;;;;;;5112464;28;20039;-55
2022/03/25 05:49:56;;;;;;;89.55;46.13;;;2.90;99.90;;;;;;5108224;28;20032;-54
2022/03/25 05:52:21;;;;;;;89.38;44.90;;;2.90;99.90;;;;;;5105145;28;20475;-54
2022/03/25 05:54:47;;;;;;;92.10;45.90;;;3.00;99.90;;;;;;5111826;28;20080;-54
2022/03/25 05:57:12;;;;;;;96.68;48.38;;;3.00;99.90;;;;;;5110382;28;20088;-55
2022/03/25 05:59:38;;;;;;;97.05;47.40;;;3.00;99.90;;;;;;5104090;28;20058;-54
2022/03/25 06:02:03;;;;;;;93.90;45.00;;;3.00;99.90;;;;;;5109462;28;20044;-55
2022/03/25 06:04:29;;;;;;;96.65;46.83;;;3.00;99.90;;;;;;5104497;28;20104;-54
2022/03/25 06:06:54;;;;;;;90.82;45.13;;;3.10;99.90;;;;;;5102086;28;20070;-55
2022/03/25 06:09:20;;;;;;;93.32;45.92;;;3.10;99.90;;;;;;5101182;28;20036;-54
2022/03/25 06:11:46;;;;;;;90.90;45.17;;;3.20;99.90;;;;;;5100715;28;20427;-54
2022/03/25 06:14:11;;;;;;;90.45;45.38;;;3.30;99.90;;;;;;5105658;28;20407;-51
2022/03/25 06:16:39;;;;;;;94.78;46.53;;;3.30;99.90;;;;;;5103029;28;20028;-54
2022/03/25 06:19:05;;;;;;;92.05;46.03;;;3.30;99.90;;;;;;5103105;28;20039;-50
2022/03/25 06:21:31;;;;;;;90.00;46.40;;;3.40;99.90;;;;;;5104589;28;20126;-53
2022/03/25 06:23:56;;;;;;;81.97;42.70;;;3.50;99.90;;;;;;5099032;28;20225;-50
2022/03/25 06:26:22;;;;;;;81.55;41.75;;;3.50;99.90;;;;;;5110769;27;20508;-52
2022/03/25 06:28:47;;;;;;;81.00;42.20;;;3.50;99.90;;;;;;5122962;27;20563;-50
2022/03/25 06:31:13;;;;;;;78.95;40.42;;;3.50;99.90;;;;;;5114546;28;20475;-52
2022/03/25 06:33:39;;;;;;;78.57;41.90;;;3.50;99.90;;;;;;5102284;28;20491;-53
2022/03/25 06:36:07;;;;;;;71.53;39.75;;;3.50;99.90;;;;;;5106567;28;20035;-50
2022/03/25 06:38:33;;;;;;;69.55;39.38;;;3.50;99.90;;;;;;5114314;28;20043;-53
2022/03/25 06:41:01;;;;;;;69.82;40.25;;;3.40;99.90;;;;;;5102995;28;20143;-53
2022/03/25 06:43:27;;;;;;;71.85;37.63;;;3.40;99.90;;;;;;5097093;28;20119;-53
2022/03/25 06:45:53;;;;;;;64.10;35.72;;;3.40;99.90;;;;;;5098036;28;20044;-50
2022/03/25 06:48:18;;;;;;;66.35;36.60;;;3.50;99.90;;;;;;5109980;28;20047;-53
2022/03/25 06:50:44;;;;;;;60.33;35.25;;;3.40;99.90;;;;;;5109012;28;20051;-54
2022/03/25 06:53:10;;;;;;;68.45;39.17;;;3.50;99.90;;;;;;5096096;27;20036;-54
2022/03/25 06:55:36;;;;;;;72.38;38.72;;;3.50;99.90;;;;;;5096235;28;20480;-54
2022/03/25 06:58:02;;;;;;;69.95;39.08;;;3.50;99.90;;;;;;5107302;28;20066;-54
2022/03/25 07:00:28;;;;;;;68.80;38.30;;;3.60;99.90;;;;;;5104206;27;20484;-50
2022/03/25 07:02:54;;;;;;;76.05;40.88;;;3.60;99.90;;;;;;5098401;28;20044;-54
2022/03/25 07:05:21;;;;;;;84.45;43.38;;;3.70;99.90;;;;;;5106921;28;20042;-54
2022/03/25 07:07:47;;;;;;;86.65;42.83;;;3.70;99.90;;;;;;5098490;28;20457;-53
2022/03/25 07:10:14;;;;;;;83.78;43.78;;;3.80;99.90;;;;;;5100710;28;20085;-53
2022/03/25 07:12:42;;;;;;;92.50;44.25;;;3.90;99.90;;;;;;5100358;28;20043;-53
2022/03/25 07:15:09;;;;;;;80.53;43.22;;;4.10;99.90;;;;;;5101555;28;20483;-54
2022/03/25 07:17:37;;;;;;;79.07;40.83;;;4.30;99.90;;;;;;5105557;28;20120;-54
2022/03/25 07:20:04;;;;;;;84.55;43.38;;;4.50;99.90;;;;;;5106443;28;20046;-53
2022/03/25 07:22:29;;;;;;;81.65;42.63;;;4.60;99.90;;;;;;5100370;28;20382;-55
2022/03/25 07:24:55;;;;;;;77.28;40.17;;;4.80;99.90;;;;;;5097845;28;20076;-54
2022/03/25 07:27:21;;;;;;;73.00;38.08;;;5.00;99.90;;;;;;5099935;28;20040;-53
2022/03/25 07:29:46;;;;;;;77.15;40.63;;;5.20;99.90;;;;;;5102122;28;20177;-54
2022/03/25 07:32:12;;;;;;;77.88;40.17;;;5.30;99.90;;;;;;5106372;28;20060;-54
2022/03/25 07:34:38;;;;;;;79.57;39.72;;;5.50;99.90;;;;;;5098837;28;20400;-53
2022/03/25 07:37:04;;;;;;;69.70;37.25;;;5.60;99.90;;;;;;5099035;28;20107;-54
2022/03/25 07:39:31;;;;;;;64.60;36.35;;;5.70;99.90;;;;;;5103923;28;20031;-56
2022/03/25 07:41:56;;;;;;;70.60;39.03;;;5.90;99.90;;;;;;5101313;28;20094;-55
2022/03/25 07:44:22;;;;;;;69.57;38.22;;;6.10;99.90;;;;;;5098228;28;20579;-54
2022/03/25 07:46:47;;;;;;;72.40;38.25;;;6.30;99.90;;;;;;5104626;28;20146;-54
2022/03/25 07:49:13;;;;;;;68.50;37.78;;;6.40;99.90;;;;;;5104143;28;20044;-54
2022/03/25 07:51:38;;;;;;;65.93;32.42;;;6.50;99.90;;;;;;5104306;28;20404;-54
2022/03/25 07:54:06;;;;;;;74.90;37.45;;;6.70;99.90;;;;;;5096267;28;20028;-55
2022/03/25 07:57:27;;;;;;;74.07;38.85;;;6.90;99.90;;;;;;5095728;28;20491;-53
2022/03/25 08:02:50;;;;;;;69.68;34.65;;;7.20;99.90;;;;;;5154937;23;19921;-54
2022/03/25 08:05:16;;;;;;;68.60;37.20;;;7.30;99.90;;;;;;5051090;28;20044;-54
2022/03/25 08:07:43;;;;;;;70.57;37.65;;;7.50;99.90;;;;;;5044694;28;20037;-54
2022/03/25 08:10:09;;;;;;;62.58;27.60;;;7.50;99.90;;;;;;5040690;28;20132;-54
2022/03/25 08:12:36;;;;;;;67.60;35.72;;;7.70;99.90;;;;;;5042226;28;20037;-54
2022/03/25 08:15:05;;;;;;;65.45;36.15;;;7.80;99.90;;;;;;5041517;28;20084;-54
2022/03/25 08:17:31;;;;;;;64.70;34.42;;;7.80;99.90;;;;;;5018011;28;20540;-54
2022/03/25 08:19:57;;;;;;;70.00;37.40;;;7.90;99.90;;;;;;5033436;28;20041;-54
2022/03/25 08:22:22;;;;;;;68.78;36.95;;;8.00;99.90;;;;;;5015137;28;20042;-55
2022/03/25 08:27:50;;;;;;;62.63;34.30;;;8.30;99.90;;;;;;5013323;28;20052;-54
2022/03/25 08:30:15;;;;;;;;;;;8.50;99.90;;;;;;5020733;28;20160;-54
2022/03/25 08:32:41;;;;;;;59.58;33.17;;;8.60;99.90;;;;;;5026747;28;20565;-55
2022/03/25 08:35:08;;;;;;;59.55;34.22;;;8.70;99.90;;;;;;5012236;28;20553;-54
2022/03/25 08:37:34;;;;;;;55.92;32.45;;;8.80;99.90;;;;;;4979748;28;20045;-54
2022/03/25 08:40:00;;;;;;;61.47;33.42;;;9.00;99.90;;;;;;5013195;28;20143;-54
2022/03/25 08:42:26;;;;;;;57.00;32.08;;;9.10;99.90;;;;;;5015124;28;20080;-53
2022/03/25 08:44:51;;;;;;;61.05;32.08;;;9.20;99.90;;;;;;5031039;28;20064;-54
2022/03/25 08:47:17;;;;;;;60.42;29.77;;;9.30;99.90;;;;;;5015836;28;20112;-54
2022/03/25 08:49:42;;;;;;;55.80;31.45;;;9.30;99.90;;;;;;5032500;28;20045;-54
2022/03/25 08:52:08;;;;;;;53.05;29.90;;;9.50;99.90;;;;;;5001959;28;20510;-54
2022/03/25 08:54:34;;;;;;;53.35;29.35;;;9.60;99.90;;;;;;5012913;28;20025;-54
2022/03/25 08:57:02;;;;;;;54.63;28.40;;;9.60;99.90;;;;;;5020956;28;20096;-54
2022/03/25 08:59:27;;;;;;;53.03;29.65;;;9.70;99.90;;;;;;5013095;28;20104;-54
2022/03/25 09:01:55;;;;;;;53.20;27.35;;;9.80;99.90;;;;;;5016662;28;20045;-54
2022/03/25 09:04:20;;;;;;;57.95;30.75;;;9.90;99.90;;;;;;5014376;28;20521;-54
2022/03/25 09:06:46;;;;;;;56.95;31.50;;;10.00;99.90;;;;;;5032553;28;20081;-54
2022/03/25 09:09:11;;;;;;;56.78;32.13;;;10.10;99.90;;;;;;5024053;28;20042;-54
2022/03/25 09:11:37;;;;;;;60.65;31.38;;;10.20;99.70;;;;;;5030832;28;20120;-54
2022/03/25 09:14:02;;;;;;;57.90;31.25;;;10.30;99.70;;;;;;5032467;28;20401;-54
2022/03/25 09:16:28;;;;;;;58.72;32.00;;;10.40;99.70;;;;;;5032471;28;20088;-54
2022/03/25 09:18:55;;;;;;;59.30;31.55;;;10.50;98.90;;;;;;5032166;28;20516;-54
2022/03/25 09:21:21;;;;;;;56.40;32.08;;;10.60;99.00;;;;;;5032367;28;20269;-54
2022/03/25 09:23:46;;;;;;;54.83;31.60;;;10.70;99.00;;;;;;5032266;28;20695;-54
2022/03/25 09:26:12;;;;;;;56.47;29.67;;;10.80;98.80;;;;;;5031997;28;20125;-54
2022/03/25 09:28:38;;;;;;;57.63;30.65;;;10.90;97.80;;;;;;5012663;28;20040;-53
2022/03/25 09:31:04;;;;;;;50.78;26.08;;;11.10;98.00;;;;;;5032241;28;20526;-54
2022/03/25 09:33:30;;;;;;;52.90;30.23;;;11.20;96.20;;;;;;5032268;28;20104;-54
2022/03/25 09:35:57;;;;;;;53.55;26.77;;;11.30;95.70;;;;;;5016228;28;20080;-55
2022/03/25 09:38:23;;;;;;;55.47;28.02;;;11.40;94.90;;;;;;5015101;28;20045;-55
2022/03/25 09:40:50;;;;;;;53.13;28.25;;;11.40;94.80;;;;;;4982189;28;20044;-55
2022/03/25 09:43:18;;;;;;;53.13;30.70;;;11.50;93.90;;;;;;5032084;28;20038;-54
2022/03/25 09:45:45;;;;;;;55.28;30.00;;;11.50;94.30;;;;;;5032249;28;20046;-55
2022/03/25 09:48:11;;;;;;;56.25;31.60;;;11.70;94.60;;;;;;4981194;28;20044;-54
2022/03/25 09:50:39;;;;;;;51.55;29.27;;;11.80;93.60;;;;;;5031822;28;20033;-54
2022/03/25 09:53:08;;;;;;;53.72;28.83;;;11.90;93.00;;;;;;5031697;28;20065;-54
2022/03/25 09:55:46;;;;;;;52.85;30.33;;;12.00;92.20;;;;;;5031944;28;20460;-54
2022/03/25 09:58:18;;;;;;;55.22;32.15;;;12.00;92.40;;;;;;5031925;28;20164;-54
2022/03/25 10:00:52;;;;;;;54.63;30.95;;;12.00;92.80;;;;;;5012222;28;20509;-55
2022/03/25 10:03:26;;;;;;;52.58;31.55;;;12.10;93.50;;;;;;5022565;28;20116;-55
2022/03/25 10:05:57;;;;;;;55.45;31.35;;;12.20;93.50;;;;;;5016626;28;20046;-55
2022/03/25 10:08:32;;;;;;;56.05;28.70;;;12.20;92.90;;;;;;5012380;28;20061;-54
2022/03/25 10:11:26;;;;;;;47.45;29.35;;;12.30;90.90;;;;;;5011876;28;20046;-55
2022/03/25 10:14:14;;;;;;;51.45;29.67;;;12.40;90.80;;;;;;5085752;22;20052;-54
2022/03/25 10:16:41;;;;;;;51.13;29.05;;;12.40;91.30;;;;;;5040538;28;20489;-54
2022/03/25 10:19:09;;;;;;;54.97;31.30;;;12.50;91.10;;;;;;5031389;28;20139;-52
2022/03/25 10:21:54;;;;;;;51.47;30.95;;;12.50;90.90;;;;;;5035783;28;20056;-54
2022/03/25 10:24:44;;;;;;;52.38;29.42;;;12.60;91.20;;;;;;5051077;28;20052;-54
2022/03/25 10:27:10;;;;;;;55.72;30.58;;;12.80;90.10;;;;;;5051216;28;20128;-54
2022/03/25 10:29:36;;;;;;;53.38;30.27;;;12.90;89.70;;;;;;5051235;28;20037;-54
2022/03/25 10:32:03;;;;;;;48.55;30.27;;;12.90;88.00;;;;;;5050932;28;20041;-55
2022/03/25 10:34:28;;;;;;;52.58;30.98;;;13.00;87.70;;;;;;5051030;28;20162;-54
2022/03/25 10:37:02;;;;;;;52.03;28.67;;;13.10;88.70;;;;;;5050766;28;20119;-53
2022/03/25 10:39:29;;;;;;;51.78;29.98;;;13.20;86.00;;;;;;5051315;28;20155;-53
2022/03/25 10:42:00;;;;;;;54.97;30.05;;;13.40;84.10;;;;;;5050784;28;20037;-54
2022/03/25 10:44:37;;;;;;;52.20;29.40;;;13.40;84.40;;;;;;5050024;28;20037;-55
2022/03/25 10:47:24;;;;;;;48.22;29.27;;;13.40;83.70;;;;;;5050823;28;20052;-53
2022/03/25 10:49:51;;;;;;;50.63;27.50;;;13.50;82.70;;;;;;5033127;28;20045;-56
2022/03/25 10:52:26;;;;;;;49.30;28.25;;;13.50;83.80;;;;;;5051064;28;20040;-55
2022/03/25 10:55:20;;;;;;;49.85;28.60;;;13.60;81.60;;;;;;5050791;28;20033;-54
2022/03/25 10:57:54;;;;;;;49.03;26.52;;;13.70;79.50;;;;;;5050642;28;20029;-53
2022/03/25 11:00:21;;;;;;;50.35;27.02;;;13.80;77.30;;;;;;5051039;28;20132;-51
2022/03/25 11:02:47;;;;;;;45.58;27.13;;;14.00;75.60;;;;;;5050872;28;20044;-53
2022/03/25 11:05:14;;;;;;;49.97;26.80;;;14.00;76.30;;;;;;5050677;28;20040;-55
2022/03/25 11:07:42;;;;;;;43.72;26.45;;;14.00;75.00;;;;;;5050334;28;20212;-57
2022/03/25 11:10:09;;;;;;;47.20;25.25;;;14.10;73.30;;;;;;5048150;28;20094;-54
2022/03/25 11:12:36;;;;;;;44.88;28.17;;;14.10;73.70;;;;;;5053540;28;20489;-53
2022/03/25 11:15:04;;;;;;;47.92;28.70;;;14.20;74.90;;;;;;5054233;28;20048;-53
2022/03/25 11:17:33;;;;;;;47.20;27.08;;;14.30;75.70;;;;;;5045849;28;20040;-54
2022/03/25 11:20:01;;;;;;;46.08;26.77;;;14.30;74.10;;;;;;5046595;28;20041;-54
2022/03/25 11:22:27;;;;;;;48.17;27.05;;;14.40;73.80;;;;;;5034320;28;20041;-56
2022/03/25 11:24:55;;;;;;;44.95;28.65;;;14.50;73.40;;;;;;5041713;28;20047;-53
2022/03/25 11:27:26;;;;;;;47.20;27.80;;;14.60;73.10;;;;;;5050776;28;20552;-53
2022/03/25 11:29:55;;;;;;;44.53;27.08;;;14.70;72.30;;;;;;5050002;28;20052;-51
2022/03/25 11:32:21;;;;;;;47.50;26.40;;;14.70;69.60;;;;;;5054057;28;20095;-54
2022/03/25 11:34:56;;;;;;;50.85;27.88;;;14.80;70.40;;;;;;5053868;28;20041;-53
2022/03/25 11:37:28;;;;;;;45.92;25.83;;;14.90;70.80;;;;;;5053702;28;20435;-56
2022/03/25 11:40:12;;;;;;;;;;;14.90;70.30;;;;;;5054700;28;20397;-54
2022/03/25 11:42:45;;;;;;;49.38;26.88;;;15.00;69.10;;;;;;5054460;28;19916;-54
2022/03/25 11:45:31;;;;;;;47.50;28.30;;;15.00;68.50;;;;;;5053577;28;20501;-54
2022/03/25 11:48:09;;;;;;;45.85;26.20;;;15.10;69.70;;;;;;5053777;28;20098;-52
2022/03/25 11:50:39;;;;;;;43.85;25.73;;;15.20;67.60;;;;;;5054032;28;20075;-54
2022/03/25 11:53:10;;;;;;;43.10;25.98;;;15.20;67.40;;;;;;5053667;28;20036;-51
2022/03/25 11:56:02;;;;;;;54.85;27.90;;;15.30;67.10;;;;;;5053791;28;20044;-53
2022/03/25 11:58:33;;;;;;;45.15;24.05;;;15.40;66.50;;;;;;5036218;28;20120;-53
2022/03/25 12:01:03;;;;;;;42.58;26.15;;;15.50;65.20;;;;;;5053868;28;20485;-50
2022/03/25 12:03:41;;;;;;;39.83;24.00;;;15.60;65.60;;;;;;5053586;28;20155;-51
2022/03/25 12:06:07;;;;;;;38.85;25.92;;;15.70;65.30;;;;;;5053277;28;20400;-51
2022/03/25 12:08:36;;;;;;;41.88;25.80;;;15.70;65.10;;;;;;5035344;28;20041;-55
2022/03/25 12:11:07;;;;;;;43.00;25.20;;;15.70;64.50;;;;;;5053839;28;20178;-55
2022/03/25 12:13:51;;;;;;;41.40;25.05;;;15.80;63.90;;;;;;5053393;28;20052;-51
2022/03/25 12:16:45;;;;;;;43.03;23.10;;;15.80;63.60;;;;;;5053266;28;20048;-54
2022/03/25 12:19:26;;;;;;;42.85;22.60;;;16.00;61.50;;;;;;5053743;28;20116;-54
2022/03/25 12:22:28;;;;;;;42.15;24.00;;;16.00;60.70;;;;;;5053273;28;20128;-51
2022/03/25 12:25:05;;;;;;;45.00;24.05;;;16.00;61.60;;;;;;5053215;28;20127;-56
2022/03/25 12:27:30;;;;;;;45.15;23.58;;;16.00;60.90;;;;;;5053303;28;20136;-51
2022/03/25 12:29:56;;;;;;;43.70;24.00;;;16.00;61.90;;;;;;5053546;28;20528;-55
2022/03/25 12:32:24;;;;;;;44.38;24.05;;;16.00;61.40;;;;;;5053295;28;20072;-50
2022/03/25 12:35:16;;;;;;;45.20;24.80;;;16.00;61.90;;;;;;5034467;28;20095;-50
2022/03/25 12:38:01;;;;;;;40.65;22.30;;;16.10;60.10;;;;;;5032865;28;20051;-54
2022/03/25 12:40:29;;;;;;;42.33;22.27;;;16.10;60.20;;;;;;5033454;28;20041;-52